sensor_id;sensor_type;location;lat;lon;timestamp;temperature;humidity
3942;DHT22;1985;48.592;8.850;2023-08-24T00:00:40;22.80;95.00
3942;DHT22;1985;48.592;8.850;2023-08-24T00:03:06;22.70;97.40
3942;DHT22;1985;48.592;8.850;2023-08-24T00:05:36;22.50;98.80
3942;DHT22;1985;48.592;8.850;2023-08-24T00:08:06;22.40;98.70
3942;DHT22;1985;48.592;8.850;2023-08-24T00:10:33;22.30;98.50
3942;DHT22;1985;48.592;8.850;2023-08-24T00:12:58;22.40;98.30
3942;DHT22;1985;48.592;8.850;2023-08-24T00:15:24;22.50;97.40
3942;DHT22;1985;48.592;8.850;2023-08-24T00:17:50;22.60;96.70
3942;DHT22;1985;48.592;8.850;2023-08-24T00:20:16;22.70;97.10
3942;DHT22;1985;48.592;8.850;2023-08-24T00:22:41;22.70;96.50
3942;DHT22;1985;48.592;8.850;2023-08-24T00:25:08;22.70;96.50
3942;DHT22;1985;48.592;8.850;2023-08-24T00:27:34;22.70;96.20
3942;DHT22;1985;48.592;8.850;2023-08-24T00:30:02;22.60;96.50
3942;DHT22;1985;48.592;8.850;2023-08-24T00:32:29;22.60;96.30
3942;DHT22;1985;48.592;8.850;2023-08-24T00:34:56;22.60;97.00
3942;DHT22;1985;48.592;8.850;2023-08-24T00:37:21;22.60;97.30
3942;DHT22;1985;48.592;8.850;2023-08-24T00:39:47;22.50;97.80
3942;DHT22;1985;48.592;8.850;2023-08-24T00:42:12;22.40;98.40
3942;DHT22;1985;48.592;8.850;2023-08-24T00:44:41;22.30;99.80
3942;DHT22;1985;48.592;8.850;2023-08-24T00:47:07;22.30;99.60
3942;DHT22;1985;48.592;8.850;2023-08-24T00:49:34;22.20;99.90
3942;DHT22;1985;48.592;8.850;2023-08-24T00:52:00;22.00;99.80
3942;DHT22;1985;48.592;8.850;2023-08-24T00:54:26;22.00;99.90
3942;DHT22;1985;48.592;8.850;2023-08-24T00:56:52;21.90;99.90
3942;DHT22;1985;48.592;8.850;2023-08-24T00:59:18;21.90;99.40
3942;DHT22;1985;48.592;8.850;2023-08-24T01:01:45;21.80;98.50
3942;DHT22;1985;48.592;8.850;2023-08-24T01:04:13;21.60;98.90
3942;DHT22;1985;48.592;8.850;2023-08-24T01:06:38;21.50;99.00
3942;DHT22;1985;48.592;8.850;2023-08-24T01:09:04;21.30;99.90
3942;DHT22;1985;48.592;8.850;2023-08-24T01:16:43;21.30;99.90
3942;DHT22;1985;48.592;8.850;2023-08-24T01:19:27;21.20;99.90
3942;DHT22;1985;48.592;8.850;2023-08-24T01:21:54;21.30;99.90
3942;DHT22;1985;48.592;8.850;2023-08-24T01:24:33;21.30;99.90
3942;DHT22;1985;48.592;8.850;2023-08-24T01:27:01;21.20;99.90
3942;DHT22;1985;48.592;8.850;2023-08-24T01:29:27;21.30;99.90
3942;DHT22;1985;48.592;8.850;2023-08-24T01:31:53;21.40;99.90
3942;DHT22;1985;48.592;8.850;2023-08-24T01:34:19;21.40;99.90
3942;DHT22;1985;48.592;8.850;2023-08-24T01:36:44;21.50;99.90
3942;DHT22;1985;48.592;8.850;2023-08-24T01:39:18;21.60;99.90
3942;DHT22;1985;48.592;8.850;2023-08-24T01:41:50;21.60;99.90
3942;DHT22;1985;48.592;8.850;2023-08-24T01:44:18;21.60;99.90
3942;DHT22;1985;48.592;8.850;2023-08-24T01:46:45;21.60;99.90
3942;DHT22;1985;48.592;8.850;2023-08-24T01:49:15;21.70;99.90
3942;DHT22;1985;48.592;8.850;2023-08-24T01:51:43;21.70;99.90
3942;DHT22;1985;48.592;8.850;2023-08-24T01:54:09;21.70;99.90
3942;DHT22;1985;48.592;8.850;2023-08-24T01:56:35;21.60;99.90
3942;DHT22;1985;48.592;8.850;2023-08-24T01:59:00;21.60;99.90
3942;DHT22;1985;48.592;8.850;2023-08-24T02:01:26;21.50;99.90
3942;DHT22;1985;48.592;8.850;2023-08-24T02:03:52;21.60;99.90
3942;DHT22;1985;48.592;8.850;2023-08-24T02:06:17;21.70;99.90
3942;DHT22;1985;48.592;8.850;2023-08-24T02:08:43;21.70;99.90
3942;DHT22;1985;48.592;8.850;2023-08-24T02:11:10;21.70;99.90
3942;DHT22;1985;48.592;8.850;2023-08-24T02:13:35;21.70;99.90
3942;DHT22;1985;48.592;8.850;2023-08-24T02:16:05;21.70;99.90
3942;DHT22;1985;48.592;8.850;2023-08-24T02:18:31;21.60;99.90
3942;DHT22;1985;48.592;8.850;2023-08-24T02:20:57;21.60;99.90
3942;DHT22;1985;48.592;8.850;2023-08-24T02:23:23;21.60;99.90
3942;DHT22;1985;48.592;8.850;2023-08-24T02:25:48;21.70;99.90
3942;DHT22;1985;48.592;8.850;2023-08-24T02:28:14;21.70;99.90
3942;DHT22;1985;48.592;8.850;2023-08-24T02:30:39;21.60;99.90
3942;DHT22;1985;48.592;8.850;2023-08-24T02:33:05;21.50;99.90
3942;DHT22;1985;48.592;8.850;2023-08-24T02:35:31;21.50;99.90
3942;DHT22;1985;48.592;8.850;2023-08-24T02:37:56;21.50;99.90
3942;DHT22;1985;48.592;8.850;2023-08-24T02:40:23;21.50;99.90
3942;DHT22;1985;48.592;8.850;2023-08-24T02:42:48;21.50;99.90
3942;DHT22;1985;48.592;8.850;2023-08-24T02:45:14;21.50;99.90
3942;DHT22;1985;48.592;8.850;2023-08-24T02:47:40;21.60;99.90
3942;DHT22;1985;48.592;8.850;2023-08-24T02:50:06;21.60;99.90
3942;DHT22;1985;48.592;8.850;2023-08-24T02:52:32;21.60;99.90
3942;DHT22;1985;48.592;8.850;2023-08-24T02:54:58;21.60;99.90
3942;DHT22;1985;48.592;8.850;2023-08-24T02:57:24;21.60;99.90
3942;DHT22;1985;48.592;8.850;2023-08-24T02:59:50;21.60;99.90
3942;DHT22;1985;48.592;8.850;2023-08-24T03:02:16;21.60;99.90
3942;DHT22;1985;48.592;8.850;2023-08-24T03:04:41;21.60;99.90
3942;DHT22;1985;48.592;8.850;2023-08-24T03:07:07;21.70;99.90
3942;DHT22;1985;48.592;8.850;2023-08-24T03:09:36;21.70;99.90
3942;DHT22;1985;48.592;8.850;2023-08-24T03:12:02;21.70;99.90
3942;DHT22;1985;48.592;8.850;2023-08-24T03:14:28;21.60;99.90
3942;DHT22;1985;48.592;8.850;2023-08-24T03:16:54;21.60;99.90
3942;DHT22;1985;48.592;8.850;2023-08-24T03:19:19;21.60;99.90
3942;DHT22;1985;48.592;8.850;2023-08-24T03:21:45;21.50;99.90
3942;DHT22;1985;48.592;8.850;2023-08-24T03:24:11;21.50;99.90
3942;DHT22;1985;48.592;8.850;2023-08-24T03:26:36;21.50;99.90
3942;DHT22;1985;48.592;8.850;2023-08-24T03:29:02;21.60;99.90
3942;DHT22;1985;48.592;8.850;2023-08-24T03:31:27;21.60;99.90
3942;DHT22;1985;48.592;8.850;2023-08-24T03:33:53;21.60;99.90
3942;DHT22;1985;48.592;8.850;2023-08-24T03:36:18;21.60;99.90
3942;DHT22;1985;48.592;8.850;2023-08-24T03:38:44;21.60;99.90
3942;DHT22;1985;48.592;8.850;2023-08-24T03:41:10;21.70;99.90
3942;DHT22;1985;48.592;8.850;2023-08-24T03:43:36;21.70;99.90
3942;DHT22;1985;48.592;8.850;2023-08-24T03:46:04;21.70;99.90
3942;DHT22;1985;48.592;8.850;2023-08-24T03:48:31;21.60;99.90
3942;DHT22;1985;48.592;8.850;2023-08-24T03:50:57;21.70;99.90
3942;DHT22;1985;48.592;8.850;2023-08-24T03:53:23;21.70;99.90
3942;DHT22;1985;48.592;8.850;2023-08-24T03:55:50;21.70;99.90
3942;DHT22;1985;48.592;8.850;2023-08-24T03:58:16;21.70;99.90
3942;DHT22;1985;48.592;8.850;2023-08-24T04:00:41;21.70;99.90
3942;DHT22;1985;48.592;8.850;2023-08-24T04:03:07;21.70;99.90
3942;DHT22;1985;48.592;8.850;2023-08-24T04:05:33;21.60;99.90
3942;DHT22;1985;48.592;8.850;2023-08-24T04:07:58;21.50;99.90
3942;DHT22;1985;48.592;8.850;2023-08-24T04:10:26;21.50;99.90
3942;DHT22;1985;48.592;8.850;2023-08-24T04:12:52;21.50;99.90
3942;DHT22;1985;48.592;8.850;2023-08-24T04:15:18;21.50;99.90
3942;DHT22;1985;48.592;8.850;2023-08-24T04:17:43;21.40;99.90
3942;DHT22;1985;48.592;8.850;2023-08-24T04:20:09;21.40;99.90
3942;DHT22;1985;48.592;8.850;2023-08-24T04:22:35;21.40;99.90
3942;DHT22;1985;48.592;8.850;2023-08-24T04:25:01;21.50;99.90
3942;DHT22;1985;48.592;8.850;2023-08-24T04:27:27;21.50;99.90
3942;DHT22;1985;48.592;8.850;2023-08-24T04:29:52;21.40;99.90
3942;DHT22;1985;48.592;8.850;2023-08-24T04:32:18;21.40;99.90
3942;DHT22;1985;48.592;8.850;2023-08-24T04:34:44;21.30;99.90
3942;DHT22;1985;48.592;8.850;2023-08-24T04:37:10;21.40;99.90
3942;DHT22;1985;48.592;8.850;2023-08-24T04:39:36;21.40;99.90
3942;DHT22;1985;48.592;8.850;2023-08-24T04:42:02;21.40;99.90
3942;DHT22;1985;48.592;8.850;2023-08-24T04:44:28;21.40;99.90
3942;DHT22;1985;48.592;8.850;2023-08-24T04:46:54;21.30;99.90
3942;DHT22;1985;48.592;8.850;2023-08-24T04:49:19;21.20;99.90
3942;DHT22;1985;48.592;8.850;2023-08-24T04:51:45;21.10;99.90
3942;DHT22;1985;48.592;8.850;2023-08-24T04:54:10;21.10;99.90
3942;DHT22;1985;48.592;8.850;2023-08-24T04:56:36;21.10;99.90
3942;DHT22;1985;48.592;8.850;2023-08-24T04:59:02;21.10;99.90
3942;DHT22;1985;48.592;8.850;2023-08-24T05:01:28;21.20;99.90
3942;DHT22;1985;48.592;8.850;2023-08-24T05:03:54;21.30;99.90
3942;DHT22;1985;48.592;8.850;2023-08-24T05:06:20;21.30;99.90
3942;DHT22;1985;48.592;8.850;2023-08-24T05:08:46;21.30;99.90
3942;DHT22;1985;48.592;8.850;2023-08-24T05:11:21;21.50;99.90
3942;DHT22;1985;48.592;8.850;2023-08-24T05:13:47;21.50;99.90
3942;DHT22;1985;48.592;8.850;2023-08-24T05:16:13;21.50;99.90
3942;DHT22;1985;48.592;8.850;2023-08-24T05:18:39;21.40;99.90
3942;DHT22;1985;48.592;8.850;2023-08-24T05:21:05;21.50;99.90
3942;DHT22;1985;48.592;8.850;2023-08-24T05:23:35;21.60;99.90
3942;DHT22;1985;48.592;8.850;2023-08-24T05:26:02;21.70;99.90
3942;DHT22;1985;48.592;8.850;2023-08-24T05:28:29;21.70;99.90
3942;DHT22;1985;48.592;8.850;2023-08-24T05:30:55;21.80;99.90
3942;DHT22;1985;48.592;8.850;2023-08-24T05:33:22;21.90;99.90
3942;DHT22;1985;48.592;8.850;2023-08-24T05:35:48;21.90;99.90
3942;DHT22;1985;48.592;8.850;2023-08-24T05:38:14;21.90;99.90
3942;DHT22;1985;48.592;8.850;2023-08-24T05:40:40;21.80;99.90
3942;DHT22;1985;48.592;8.850;2023-08-24T05:43:08;21.50;99.90
3942;DHT22;1985;48.592;8.850;2023-08-24T05:45:34;21.40;99.90
3942;DHT22;1985;48.592;8.850;2023-08-24T05:47:59;21.20;99.90
3942;DHT22;1985;48.592;8.850;2023-08-24T05:50:25;21.10;99.90
3942;DHT22;1985;48.592;8.850;2023-08-24T05:52:51;20.70;99.90
3942;DHT22;1985;48.592;8.850;2023-08-24T05:55:16;20.60;99.90
3942;DHT22;1985;48.592;8.850;2023-08-24T05:57:42;20.70;99.90
3942;DHT22;1985;48.592;8.850;2023-08-24T06:00:08;20.70;99.90
3942;DHT22;1985;48.592;8.850;2023-08-24T06:02:39;20.80;99.90
3942;DHT22;1985;48.592;8.850;2023-08-24T06:05:05;20.90;99.90
3942;DHT22;1985;48.592;8.850;2023-08-24T06:07:32;21.00;99.90
3942;DHT22;1985;48.592;8.850;2023-08-24T06:09:57;21.10;99.90
3942;DHT22;1985;48.592;8.850;2023-08-24T06:12:23;21.20;99.90
3942;DHT22;1985;48.592;8.850;2023-08-24T06:14:49;21.40;99.90
3942;DHT22;1985;48.592;8.850;2023-08-24T06:17:14;21.60;99.90
3942;DHT22;1985;48.592;8.850;2023-08-24T06:19:40;21.80;99.90
3942;DHT22;1985;48.592;8.850;2023-08-24T06:22:06;21.90;99.90
3942;DHT22;1985;48.592;8.850;2023-08-24T06:24:32;21.90;99.90
3942;DHT22;1985;48.592;8.850;2023-08-24T06:26:58;22.00;99.90
3942;DHT22;1985;48.592;8.850;2023-08-24T06:29:23;22.20;99.90
3942;DHT22;1985;48.592;8.850;2023-08-24T06:31:49;22.40;99.90
3942;DHT22;1985;48.592;8.850;2023-08-24T06:34:15;22.40;99.90
3942;DHT22;1985;48.592;8.850;2023-08-24T06:36:40;22.50;99.90
3942;DHT22;1985;48.592;8.850;2023-08-24T06:39:06;22.60;99.90
3942;DHT22;1985;48.592;8.850;2023-08-24T06:41:35;22.70;99.90
3942;DHT22;1985;48.592;8.850;2023-08-24T06:44:01;22.80;99.90
3942;DHT22;1985;48.592;8.850;2023-08-24T06:46:27;22.90;99.90
3942;DHT22;1985;48.592;8.850;2023-08-24T06:48:52;23.00;99.90
3942;DHT22;1985;48.592;8.850;2023-08-24T06:51:18;23.00;99.90
3942;DHT22;1985;48.592;8.850;2023-08-24T06:53:43;23.10;99.90
3942;DHT22;1985;48.592;8.850;2023-08-24T06:56:10;23.00;99.90
3942;DHT22;1985;48.592;8.850;2023-08-24T06:58:36;22.90;99.90
3942;DHT22;1985;48.592;8.850;2023-08-24T07:01:01;22.80;99.90
3942;DHT22;1985;48.592;8.850;2023-08-24T07:03:31;22.70;99.90
3942;DHT22;1985;48.592;8.850;2023-08-24T07:05:58;22.50;99.90
3942;DHT22;1985;48.592;8.850;2023-08-24T07:08:24;22.70;99.90
3942;DHT22;1985;48.592;8.850;2023-08-24T07:10:50;22.80;99.90
3942;DHT22;1985;48.592;8.850;2023-08-24T07:13:15;22.90;99.90
3942;DHT22;1985;48.592;8.850;2023-08-24T07:15:41;23.20;99.90
3942;DHT22;1985;48.592;8.850;2023-08-24T07:18:07;23.40;99.90
3942;DHT22;1985;48.592;8.850;2023-08-24T07:20:34;23.60;99.90
3942;DHT22;1985;48.592;8.850;2023-08-24T07:23:00;23.70;99.90
3942;DHT22;1985;48.592;8.850;2023-08-24T07:25:26;23.80;99.90
3942;DHT22;1985;48.592;8.850;2023-08-24T07:27:53;23.80;99.90
3942;DHT22;1985;48.592;8.850;2023-08-24T07:30:24;23.80;99.90
3942;DHT22;1985;48.592;8.850;2023-08-24T07:32:50;23.70;99.90
3942;DHT22;1985;48.592;8.850;2023-08-24T07:35:15;23.80;99.90
3942;DHT22;1985;48.592;8.850;2023-08-24T07:37:41;23.80;99.90
3942;DHT22;1985;48.592;8.850;2023-08-24T07:40:07;23.90;99.90
3942;DHT22;1985;48.592;8.850;2023-08-24T07:42:46;24.10;99.90
3942;DHT22;1985;48.592;8.850;2023-08-24T07:45:13;24.30;99.90
3942;DHT22;1985;48.592;8.850;2023-08-24T07:47:42;24.50;99.90
3942;DHT22;1985;48.592;8.850;2023-08-24T07:50:09;24.70;99.90
3942;DHT22;1985;48.592;8.850;2023-08-24T07:52:37;24.80;99.90
3942;DHT22;1985;48.592;8.850;2023-08-24T07:55:02;24.90;99.90
3942;DHT22;1985;48.592;8.850;2023-08-24T07:57:30;25.00;99.90
3942;DHT22;1985;48.592;8.850;2023-08-24T07:59:57;25.10;99.90
3942;DHT22;1985;48.592;8.850;2023-08-24T08:02:23;25.20;99.90
3942;DHT22;1985;48.592;8.850;2023-08-24T08:04:48;25.30;99.90
3942;DHT22;1985;48.592;8.850;2023-08-24T08:07:14;25.40;99.90
3942;DHT22;1985;48.592;8.850;2023-08-24T08:09:40;25.50;99.90
3942;DHT22;1985;48.592;8.850;2023-08-24T08:12:06;25.50;99.40
3942;DHT22;1985;48.592;8.850;2023-08-24T08:14:31;25.60;99.00
3942;DHT22;1985;48.592;8.850;2023-08-24T08:16:57;25.70;99.20
3942;DHT22;1985;48.592;8.850;2023-08-24T08:19:23;25.90;98.90
3942;DHT22;1985;48.592;8.850;2023-08-24T08:21:50;26.00;98.10
3942;DHT22;1985;48.592;8.850;2023-08-24T08:24:16;26.10;97.90
3942;DHT22;1985;48.592;8.850;2023-08-24T08:26:42;26.30;97.70
3942;DHT22;1985;48.592;8.850;2023-08-24T08:29:07;26.40;97.10
3942;DHT22;1985;48.592;8.850;2023-08-24T08:31:33;26.50;96.50
3942;DHT22;1985;48.592;8.850;2023-08-24T08:33:59;26.50;96.30
3942;DHT22;1985;48.592;8.850;2023-08-24T08:36:24;26.50;96.90
3942;DHT22;1985;48.592;8.850;2023-08-24T08:38:50;26.50;97.20
3942;DHT22;1985;48.592;8.850;2023-08-24T08:41:17;26.70;95.80
3942;DHT22;1985;48.592;8.850;2023-08-24T08:43:47;26.70;95.80
3942;DHT22;1985;48.592;8.850;2023-08-24T08:46:14;26.70;95.30
3942;DHT22;1985;48.592;8.850;2023-08-24T08:48:41;26.50;94.30
3942;DHT22;1985;48.592;8.850;2023-08-24T08:51:08;26.50;94.70
3942;DHT22;1985;48.592;8.850;2023-08-24T08:53:34;26.60;96.40
3942;DHT22;1985;48.592;8.850;2023-08-24T08:56:01;26.70;97.30
3942;DHT22;1985;48.592;8.850;2023-08-24T08:58:31;26.90;97.70
3942;DHT22;1985;48.592;8.850;2023-08-24T09:00:57;27.10;96.30
3942;DHT22;1985;48.592;8.850;2023-08-24T09:03:26;27.10;94.90
3942;DHT22;1985;48.592;8.850;2023-08-24T09:05:53;27.10;94.70
3942;DHT22;1985;48.592;8.850;2023-08-24T09:08:20;27.00;94.90
3942;DHT22;1985;48.592;8.850;2023-08-24T09:10:45;27.00;95.00
3942;DHT22;1985;48.592;8.850;2023-08-24T09:13:11;27.00;95.20
3942;DHT22;1985;48.592;8.850;2023-08-24T09:15:37;26.80;95.80
3942;DHT22;1985;48.592;8.850;2023-08-24T09:18:03;26.90;96.80
3942;DHT22;1985;48.592;8.850;2023-08-24T09:20:29;26.90;97.40
3942;DHT22;1985;48.592;8.850;2023-08-24T09:22:55;27.10;96.00
3942;DHT22;1985;48.592;8.850;2023-08-24T09:25:23;27.30;96.30
3942;DHT22;1985;48.592;8.850;2023-08-24T09:28:01;27.30;96.40
3942;DHT22;1985;48.592;8.850;2023-08-24T09:30:31;27.50;96.60
3942;DHT22;1985;48.592;8.850;2023-08-24T09:33:02;27.50;95.60
3942;DHT22;1985;48.592;8.850;2023-08-24T09:35:28;27.50;95.80
3942;DHT22;1985;48.592;8.850;2023-08-24T09:37:54;27.60;96.60
3942;DHT22;1985;48.592;8.850;2023-08-24T09:40:24;27.80;96.00
3942;DHT22;1985;48.592;8.850;2023-08-24T09:42:50;27.90;95.30
3942;DHT22;1985;48.592;8.850;2023-08-24T09:45:16;28.10;96.00
3942;DHT22;1985;48.592;8.850;2023-08-24T09:47:51;28.30;97.50
3942;DHT22;1985;48.592;8.850;2023-08-24T09:50:20;28.30;95.70
3942;DHT22;1985;48.592;8.850;2023-08-24T09:52:47;28.50;95.70
3942;DHT22;1985;48.592;8.850;2023-08-24T09:55:19;28.60;94.70
3942;DHT22;1985;48.592;8.850;2023-08-24T09:57:45;28.70;93.90
3942;DHT22;1985;48.592;8.850;2023-08-24T10:00:13;28.70;94.90
3942;DHT22;1985;48.592;8.850;2023-08-24T10:02:50;28.80;94.80
3942;DHT22;1985;48.592;8.850;2023-08-24T10:05:20;29.20;94.50
3942;DHT22;1985;48.592;8.850;2023-08-24T10:07:56;29.40;94.00
3942;DHT22;1985;48.592;8.850;2023-08-24T10:10:24;29.70;92.50
3942;DHT22;1985;48.592;8.850;2023-08-24T10:12:55;29.60;92.30
3942;DHT22;1985;48.592;8.850;2023-08-24T10:15:22;29.60;92.40
3942;DHT22;1985;48.592;8.850;2023-08-24T10:17:49;29.90;92.00
3942;DHT22;1985;48.592;8.850;2023-08-24T10:20:18;30.50;91.90
3942;DHT22;1985;48.592;8.850;2023-08-24T10:22:46;31.00;90.70
3942;DHT22;1985;48.592;8.850;2023-08-24T10:25:13;31.20;90.40
3942;DHT22;1985;48.592;8.850;2023-08-24T10:27:39;32.10;90.20
3942;DHT22;1985;48.592;8.850;2023-08-24T10:30:13;32.80;83.20
3942;DHT22;1985;48.592;8.850;2023-08-24T10:32:40;33.60;81.10
3942;DHT22;1985;48.592;8.850;2023-08-24T10:35:06;34.50;74.30
3942;DHT22;1985;48.592;8.850;2023-08-24T10:37:32;34.60;72.30
3942;DHT22;1985;48.592;8.850;2023-08-24T10:40:00;34.60;71.40
3942;DHT22;1985;48.592;8.850;2023-08-24T10:42:26;35.30;71.50
3942;DHT22;1985;48.592;8.850;2023-08-24T10:44:52;35.70;68.40
3942;DHT22;1985;48.592;8.850;2023-08-24T10:47:21;35.80;69.00
3942;DHT22;1985;48.592;8.850;2023-08-24T10:52:43;36.10;63.90
3942;DHT22;1985;48.592;8.850;2023-08-24T10:55:22;35.60;65.10
3942;DHT22;1985;48.592;8.850;2023-08-24T10:57:59;36.40;64.50
3942;DHT22;1985;48.592;8.850;2023-08-24T11:00:27;37.10;63.40
3942;DHT22;1985;48.592;8.850;2023-08-24T11:02:53;37.20;63.90
3942;DHT22;1985;48.592;8.850;2023-08-24T11:05:20;38.40;59.50
3942;DHT22;1985;48.592;8.850;2023-08-24T11:08:10;38.30;58.60
3942;DHT22;1985;48.592;8.850;2023-08-24T11:15:47;38.30;57.40
3942;DHT22;1985;48.592;8.850;2023-08-24T11:18:23;37.70;57.90
3942;DHT22;1985;48.592;8.850;2023-08-24T11:20:55;37.10;60.10
3942;DHT22;1985;48.592;8.850;2023-08-24T11:23:23;36.70;60.40
3942;DHT22;1985;48.592;8.850;2023-08-24T11:25:51;35.80;60.00
3942;DHT22;1985;48.592;8.850;2023-08-24T11:28:31;34.60;63.30
3942;DHT22;1985;48.592;8.850;2023-08-24T11:30:58;34.50;66.20
3942;DHT22;1985;48.592;8.850;2023-08-24T11:33:31;34.60;66.40
3942;DHT22;1985;48.592;8.850;2023-08-24T11:35:58;34.00;66.20
3942;DHT22;1985;48.592;8.850;2023-08-24T11:38:24;33.10;68.40
3942;DHT22;1985;48.592;8.850;2023-08-24T11:40:50;33.10;68.90
3942;DHT22;1985;48.592;8.850;2023-08-24T11:43:25;33.20;68.40
3942;DHT22;1985;48.592;8.850;2023-08-24T11:45:55;33.60;70.50
3942;DHT22;1985;48.592;8.850;2023-08-24T11:48:27;34.10;68.80
3942;DHT22;1985;48.592;8.850;2023-08-24T11:50:55;34.20;68.80
3942;DHT22;1985;48.592;8.850;2023-08-24T11:53:22;33.80;69.00
3942;DHT22;1985;48.592;8.850;2023-08-24T11:55:48;33.50;68.70
3942;DHT22;1985;48.592;8.850;2023-08-24T11:58:14;33.30;70.10
3942;DHT22;1985;48.592;8.850;2023-08-24T12:00:42;33.30;70.10
3942;DHT22;1985;48.592;8.850;2023-08-24T12:03:08;33.40;70.90
3942;DHT22;1985;48.592;8.850;2023-08-24T12:05:33;33.40;70.00
3942;DHT22;1985;48.592;8.850;2023-08-24T12:07:59;33.60;70.30
3942;DHT22;1985;48.592;8.850;2023-08-24T12:10:25;33.90;69.70
3942;DHT22;1985;48.592;8.850;2023-08-24T12:13:04;34.10;69.60
3942;DHT22;1985;48.592;8.850;2023-08-24T12:15:37;33.90;68.10
3942;DHT22;1985;48.592;8.850;2023-08-24T12:20:34;33.80;69.20
3942;DHT22;1985;48.592;8.850;2023-08-24T12:23:00;33.80;67.90
3942;DHT22;1985;48.592;8.850;2023-08-24T12:25:26;33.90;69.30
3942;DHT22;1985;48.592;8.850;2023-08-24T12:27:52;34.00;67.80
3942;DHT22;1985;48.592;8.850;2023-08-24T12:30:19;34.00;68.90
3942;DHT22;1985;48.592;8.850;2023-08-24T12:32:47;34.00;66.90
3942;DHT22;1985;48.592;8.850;2023-08-24T12:35:16;33.90;67.30
3942;DHT22;1985;48.592;8.850;2023-08-24T12:37:42;33.70;68.60
3942;DHT22;1985;48.592;8.850;2023-08-24T12:40:07;33.60;67.80
3942;DHT22;1985;48.592;8.850;2023-08-24T12:42:34;33.60;68.00
3942;DHT22;1985;48.592;8.850;2023-08-24T12:44:59;33.60;68.10
3942;DHT22;1985;48.592;8.850;2023-08-24T12:47:25;33.90;68.50
3942;DHT22;1985;48.592;8.850;2023-08-24T12:49:51;34.10;67.80
3942;DHT22;1985;48.592;8.850;2023-08-24T12:52:18;34.20;67.50
3942;DHT22;1985;48.592;8.850;2023-08-24T12:54:44;34.20;65.90
3942;DHT22;1985;48.592;8.850;2023-08-24T12:57:09;33.90;66.10
3942;DHT22;1985;48.592;8.850;2023-08-24T12:59:35;33.60;66.60
3942;DHT22;1985;48.592;8.850;2023-08-24T13:02:00;33.30;66.70
3942;DHT22;1985;48.592;8.850;2023-08-24T13:04:26;33.40;67.80
3942;DHT22;1985;48.592;8.850;2023-08-24T13:06:55;33.60;66.40
3942;DHT22;1985;48.592;8.850;2023-08-24T13:09:20;33.80;66.40
3942;DHT22;1985;48.592;8.850;2023-08-24T13:11:46;33.60;66.80
3942;DHT22;1985;48.592;8.850;2023-08-24T13:14:13;33.40;65.70
3942;DHT22;1985;48.592;8.850;2023-08-24T13:16:39;33.20;67.50
3942;DHT22;1985;48.592;8.850;2023-08-24T13:19:05;33.20;68.60
3942;DHT22;1985;48.592;8.850;2023-08-24T13:21:31;33.50;68.70
3942;DHT22;1985;48.592;8.850;2023-08-24T13:23:56;33.90;67.60
3942;DHT22;1985;48.592;8.850;2023-08-24T13:26:22;34.30;68.70
3942;DHT22;1985;48.592;8.850;2023-08-24T13:28:51;34.60;66.50
3942;DHT22;1985;48.592;8.850;2023-08-24T13:31:17;34.70;65.00
3942;DHT22;1985;48.592;8.850;2023-08-24T13:33:44;34.60;65.70
3942;DHT22;1985;48.592;8.850;2023-08-24T13:36:10;34.50;65.80
3942;DHT22;1985;48.592;8.850;2023-08-24T13:38:35;34.80;65.00
3942;DHT22;1985;48.592;8.850;2023-08-24T13:41:01;35.20;63.10
3942;DHT22;1985;48.592;8.850;2023-08-24T13:43:27;35.40;64.10
3942;DHT22;1985;48.592;8.850;2023-08-24T13:45:53;35.30;62.80
3942;DHT22;1985;48.592;8.850;2023-08-24T13:48:18;34.90;63.60
3942;DHT22;1985;48.592;8.850;2023-08-24T13:50:51;35.10;63.80
3942;DHT22;1985;48.592;8.850;2023-08-24T13:53:18;35.00;62.60
3942;DHT22;1985;48.592;8.850;2023-08-24T13:55:43;34.50;62.10
3942;DHT22;1985;48.592;8.850;2023-08-24T13:58:09;34.30;63.10
3942;DHT22;1985;48.592;8.850;2023-08-24T14:00:34;34.40;64.90
3942;DHT22;1985;48.592;8.850;2023-08-24T14:03:00;34.40;64.70
3942;DHT22;1985;48.592;8.850;2023-08-24T14:05:26;34.30;64.20
3942;DHT22;1985;48.592;8.850;2023-08-24T14:07:51;34.10;63.80
3942;DHT22;1985;48.592;8.850;2023-08-24T14:10:17;33.80;63.60
3942;DHT22;1985;48.592;8.850;2023-08-24T14:12:43;33.50;63.40
3942;DHT22;1985;48.592;8.850;2023-08-24T14:15:09;33.30;64.90
3942;DHT22;1985;48.592;8.850;2023-08-24T14:17:35;33.30;64.90
3942;DHT22;1985;48.592;8.850;2023-08-24T14:20:00;33.30;63.90
3942;DHT22;1985;48.592;8.850;2023-08-24T14:22:26;33.10;64.50
3942;DHT22;1985;48.592;8.850;2023-08-24T14:24:52;33.10;64.20
3942;DHT22;1985;48.592;8.850;2023-08-24T14:27:17;33.10;63.80
3942;DHT22;1985;48.592;8.850;2023-08-24T14:29:43;33.10;64.10
3942;DHT22;1985;48.592;8.850;2023-08-24T14:32:08;33.00;65.00
3942;DHT22;1985;48.592;8.850;2023-08-24T14:34:34;32.70;66.20
3942;DHT22;1985;48.592;8.850;2023-08-24T14:37:00;32.70;67.60
3942;DHT22;1985;48.592;8.850;2023-08-24T14:39:25;32.70;69.20
3942;DHT22;1985;48.592;8.850;2023-08-24T14:41:51;32.70;69.80
3942;DHT22;1985;48.592;8.850;2023-08-24T14:44:17;32.60;69.90
3942;DHT22;1985;48.592;8.850;2023-08-24T14:46:42;32.40;70.00
3942;DHT22;1985;48.592;8.850;2023-08-24T14:49:08;32.20;70.90
3942;DHT22;1985;48.592;8.850;2023-08-24T14:51:34;31.80;76.70
3942;DHT22;1985;48.592;8.850;2023-08-24T14:53:59;30.80;90.20
3942;DHT22;1985;48.592;8.850;2023-08-24T14:56:25;29.60;92.90
3942;DHT22;1985;48.592;8.850;2023-08-24T14:58:50;28.10;99.90
3942;DHT22;1985;48.592;8.850;2023-08-24T15:01:16;27.10;99.90
3942;DHT22;1985;48.592;8.850;2023-08-24T15:03:42;26.60;99.90
3942;DHT22;1985;48.592;8.850;2023-08-24T15:06:08;26.40;99.90
3942;DHT22;1985;48.592;8.850;2023-08-24T15:08:34;26.40;99.90
3942;DHT22;1985;48.592;8.850;2023-08-24T15:11:02;26.70;99.90
3942;DHT22;1985;48.592;8.850;2023-08-24T15:13:29;27.00;99.90
3942;DHT22;1985;48.592;8.850;2023-08-24T15:15:56;27.40;99.90
3942;DHT22;1985;48.592;8.850;2023-08-24T15:18:23;27.60;99.90
3942;DHT22;1985;48.592;8.850;2023-08-24T15:20:49;27.70;99.90
3942;DHT22;1985;48.592;8.850;2023-08-24T15:23:25;28.00;99.90
3942;DHT22;1985;48.592;8.850;2023-08-24T15:25:54;28.10;99.90
3942;DHT22;1985;48.592;8.850;2023-08-24T15:28:20;28.30;99.90
3942;DHT22;1985;48.592;8.850;2023-08-24T15:30:45;28.30;99.90
3942;DHT22;1985;48.592;8.850;2023-08-24T15:33:11;28.30;99.90
3942;DHT22;1985;48.592;8.850;2023-08-24T15:35:39;28.50;99.90
3942;DHT22;1985;48.592;8.850;2023-08-24T15:38:04;28.40;99.90
3942;DHT22;1985;48.592;8.850;2023-08-24T15:40:30;28.30;99.90
3942;DHT22;1985;48.592;8.850;2023-08-24T15:43:00;28.20;99.90
3942;DHT22;1985;48.592;8.850;2023-08-24T15:45:27;28.20;99.90
3942;DHT22;1985;48.592;8.850;2023-08-24T15:47:54;28.20;99.90
3942;DHT22;1985;48.592;8.850;2023-08-24T15:50:19;28.30;99.90
3942;DHT22;1985;48.592;8.850;2023-08-24T15:52:45;28.40;99.90
3942;DHT22;1985;48.592;8.850;2023-08-24T15:55:10;28.60;99.90
3942;DHT22;1985;48.592;8.850;2023-08-24T15:57:36;28.60;99.90
3942;DHT22;1985;48.592;8.850;2023-08-24T16:00:03;28.50;99.90
3942;DHT22;1985;48.592;8.850;2023-08-24T16:02:29;28.50;99.90
3942;DHT22;1985;48.592;8.850;2023-08-24T16:04:54;28.50;99.90
3942;DHT22;1985;48.592;8.850;2023-08-24T16:07:20;28.40;99.90
3942;DHT22;1985;48.592;8.850;2023-08-24T16:09:46;28.40;99.90
3942;DHT22;1985;48.592;8.850;2023-08-24T16:12:12;28.40;99.90
3942;DHT22;1985;48.592;8.850;2023-08-24T16:14:37;28.40;99.90